sensor_id;sensor_type;location;lat;lon;timestamp;pressure;altitude;pressure_sealevel;temperature;humidity
65534;BME280;53640;55.838;37.184;2023-12-22T00:01:51;96815.38;;;-1.91;71.11
65534;BME280;53640;55.838;37.184;2023-12-22T00:04:19;96814.31;;;-1.96;71.42
65534;BME280;53640;55.838;37.184;2023-12-22T00:06:47;96770.66;;;-2.07;70.79
65534;BME280;53640;55.838;37.184;2023-12-22T00:09:15;96859.47;;;-1.56;70.88
65534;BME280;53640;55.838;37.184;2023-12-22T00:11:42;96787.81;;;-1.96;71.11
65534;BME280;53640;55.838;37.184;2023-12-22T00:14:10;96765.19;;;-2.05;70.62
65534;BME280;53640;55.838;37.184;2023-12-22T00:16:37;96757.81;;;-2.17;70.96
65534;BME280;53640;55.838;37.184;2023-12-22T00:19:04;96843.75;;;-1.65;70.76
65534;BME280;53640;55.838;37.184;2023-12-22T00:21:31;96758.00;;;-2.18;70.79
65534;BME280;53640;55.838;37.184;2023-12-22T00:23:58;96761.31;;;-2.10;70.72
65534;BME280;53640;55.838;37.184;2023-12-22T00:26:26;96775.56;;;-2.04;70.91
65534;BME280;53640;55.838;37.184;2023-12-22T00:28:54;96787.59;;;-2.08;70.62
65534;BME280;53640;55.838;37.184;2023-12-22T00:31:21;96798.63;;;-1.98;70.95
65534;BME280;53640;55.838;37.184;2023-12-22T00:33:47;96731.91;;;-2.35;70.95
65534;BME280;53640;55.838;37.184;2023-12-22T00:36:14;96726.41;;;-2.20;71.04
65534;BME280;53640;55.838;37.184;2023-12-22T00:38:41;96757.00;;;-2.11;71.00
65534;BME280;53640;55.838;37.184;2023-12-22T00:41:10;96714.78;;;-2.32;70.92
65534;BME280;53640;55.838;37.184;2023-12-22T00:43:37;96789.69;;;-1.84;71.00
65534;BME280;53640;55.838;37.184;2023-12-22T00:46:04;96768.84;;;-2.00;70.98
65534;BME280;53640;55.838;37.184;2023-12-22T00:48:31;96727.03;;;-2.24;71.15
65534;BME280;53640;55.838;37.184;2023-12-22T00:50:59;96784.59;;;-1.72;71.15
65534;BME280;53640;55.838;37.184;2023-12-22T00:53:26;96753.56;;;-1.98;71.14
65534;BME280;53640;55.838;37.184;2023-12-22T00:55:53;96696.84;;;-2.37;70.81
65534;BME280;53640;55.838;37.184;2023-12-22T00:58:20;96769.69;;;-1.86;71.03
65534;BME280;53640;55.838;37.184;2023-12-22T01:00:46;96761.53;;;-1.98;71.20
65534;BME280;53640;55.838;37.184;2023-12-22T01:03:13;96739.69;;;-2.06;71.00
65534;BME280;53640;55.838;37.184;2023-12-22T01:05:41;96755.78;;;-2.15;70.69
65534;BME280;53640;55.838;37.184;2023-12-22T01:08:08;96746.81;;;-2.20;71.04
65534;BME280;53640;55.838;37.184;2023-12-22T01:10:34;96750.91;;;-2.18;71.09
65534;BME280;53640;55.838;37.184;2023-12-22T01:13:01;96801.91;;;-1.83;70.93
65534;BME280;53640;55.838;37.184;2023-12-22T01:15:28;96772.31;;;-1.99;70.63
65534;BME280;53640;55.838;37.184;2023-12-22T01:17:55;96702.53;;;-2.46;70.45
65534;BME280;53640;55.838;37.184;2023-12-22T01:20:24;96862.97;;;-1.49;70.81
65534;BME280;53640;55.838;37.184;2023-12-22T01:23:05;96702.31;;;-2.51;71.09
65534;BME280;53640;55.838;37.184;2023-12-22T01:25:31;96810.88;;;-1.90;71.17
65534;BME280;53640;55.838;37.184;2023-12-22T01:27:58;96725.59;;;-2.27;71.24
65534;BME280;53640;55.838;37.184;2023-12-22T01:30:24;96723.53;;;-2.38;71.16
65534;BME280;53640;55.838;37.184;2023-12-22T01:32:51;96691.72;;;-2.51;71.16
65534;BME280;53640;55.838;37.184;2023-12-22T01:35:17;96781.50;;;-2.02;71.06
65534;BME280;53640;55.838;37.184;2023-12-22T01:37:46;96814.78;;;-1.79;71.09
65534;BME280;53640;55.838;37.184;2023-12-22T01:40:14;96733.56;;;-2.20;71.31
65534;BME280;53640;55.838;37.184;2023-12-22T01:42:43;96731.53;;;-2.25;70.79
65534;BME280;53640;55.838;37.184;2023-12-22T01:45:11;96707.44;;;-2.43;71.24
65534;BME280;53640;55.838;37.184;2023-12-22T01:47:38;96756.84;;;-2.02;71.22
65534;BME280;53640;55.838;37.184;2023-12-22T01:50:07;96745.38;;;-2.16;71.53
65534;BME280;53640;55.838;37.184;2023-12-22T01:52:38;96712.72;;;-2.43;71.45
65534;BME280;53640;55.838;37.184;2023-12-22T01:55:11;96700.91;;;-2.47;71.36
65534;BME280;53640;55.838;37.184;2023-12-22T01:57:41;96758.03;;;-2.05;71.25
65534;BME280;53640;55.838;37.184;2023-12-22T02:00:08;96768.25;;;-1.95;71.15
65534;BME280;53640;55.838;37.184;2023-12-22T02:02:40;96672.59;;;-2.47;71.10
65534;BME280;53640;55.838;37.184;2023-12-22T02:05:09;96753.34;;;-2.10;71.15
65534;BME280;53640;55.838;37.184;2023-12-22T02:07:42;96726.81;;;-2.23;71.46
65534;BME280;53640;55.838;37.184;2023-12-22T02:10:09;96764.38;;;-1.93;71.49
65534;BME280;53640;55.838;37.184;2023-12-22T02:12:39;96693.16;;;-2.42;71.32
65534;BME280;53640;55.838;37.184;2023-12-22T02:15:07;96653.19;;;-2.61;71.26
65534;BME280;53640;55.838;37.184;2023-12-22T02:20:12;96704.41;;;-2.27;71.33
65534;BME280;53640;55.838;37.184;2023-12-22T02:22:42;96655.41;;;-2.71;71.56
65534;BME280;53640;55.838;37.184;2023-12-22T02:25:08;96698.91;;;-2.25;71.57
65534;BME280;53640;55.838;37.184;2023-12-22T02:27:48;96644.84;;;-2.58;71.64
65534;BME280;53640;55.838;37.184;2023-12-22T02:33:04;96706.25;;;-2.14;71.94
65534;BME280;53640;55.838;37.184;2023-12-22T02:35:33;96673.84;;;-2.36;71.83
65534;BME280;53640;55.838;37.184;2023-12-22T02:38:03;96805.22;;;-1.54;72.00
65534;BME280;53640;55.838;37.184;2023-12-22T02:40:34;96623.47;;;-2.63;71.87
65534;BME280;53640;55.838;37.184;2023-12-22T02:43:05;96678.94;;;-2.21;71.87
65534;BME280;53640;55.838;37.184;2023-12-22T02:45:33;96696.06;;;-2.04;70.97
65534;BME280;53640;55.838;37.184;2023-12-22T02:48:03;96669.56;;;-2.17;71.38
65534;BME280;53640;55.838;37.184;2023-12-22T02:50:30;96684.22;;;-2.15;71.50
65534;BME280;53640;55.838;37.184;2023-12-22T02:52:57;96740.13;;;-1.70;71.36
65534;BME280;53640;55.838;37.184;2023-12-22T02:55:29;96785.19;;;-1.43;71.61
65534;BME280;53640;55.838;37.184;2023-12-22T02:57:57;96648.34;;;-2.24;71.09
65534;BME280;53640;55.838;37.184;2023-12-22T03:00:26;96647.34;;;-2.36;70.19
65534;BME280;53640;55.838;37.184;2023-12-22T03:02:53;96644.06;;;-2.38;71.28
65534;BME280;53640;55.838;37.184;2023-12-22T03:05:20;96612.47;;;-2.46;70.95
65534;BME280;53640;55.838;37.184;2023-12-22T03:07:46;96689.75;;;-2.03;71.16
65534;BME280;53640;55.838;37.184;2023-12-22T03:10:13;96627.56;;;-2.40;71.38
65534;BME280;53640;55.838;37.184;2023-12-22T03:12:39;96687.09;;;-1.96;71.15
65534;BME280;53640;55.838;37.184;2023-12-22T03:15:07;96605.94;;;-2.57;71.18
65534;BME280;53640;55.838;37.184;2023-12-22T03:17:36;96721.97;;;-1.86;71.53
65534;BME280;53640;55.838;37.184;2023-12-22T03:20:05;96652.84;;;-2.31;70.96
65534;BME280;53640;55.838;37.184;2023-12-22T03:22:34;96611.25;;;-2.57;70.92
65534;BME280;53640;55.838;37.184;2023-12-22T03:25:01;96636.31;;;-2.33;69.85
65534;BME280;53640;55.838;37.184;2023-12-22T03:27:31;96704.63;;;-1.89;70.29
65534;BME280;53640;55.838;37.184;2023-12-22T03:29:58;96651.41;;;-2.27;70.50
65534;BME280;53640;55.838;37.184;2023-12-22T03:32:25;96675.28;;;-2.14;69.53
65534;BME280;53640;55.838;37.184;2023-12-22T03:34:51;96647.75;;;-2.19;70.31
65534;BME280;53640;55.838;37.184;2023-12-22T03:37:18;96720.72;;;-1.70;70.53
65534;BME280;53640;55.838;37.184;2023-12-22T03:39:44;96599.22;;;-2.53;70.86
65534;BME280;53640;55.838;37.184;2023-12-22T03:42:11;96728.28;;;-1.74;71.18
65534;BME280;53640;55.838;37.184;2023-12-22T03:44:38;96576.00;;;-2.64;70.86
65534;BME280;53640;55.838;37.184;2023-12-22T03:47:05;96694.66;;;-1.87;70.71
65534;BME280;53640;55.838;37.184;2023-12-22T03:49:31;96679.34;;;-1.91;70.59
65534;BME280;53640;55.838;37.184;2023-12-22T03:51:58;96661.81;;;-2.19;70.03
65534;BME280;53640;55.838;37.184;2023-12-22T03:54:24;96616.53;;;-2.57;70.73
65534;BME280;53640;55.838;37.184;2023-12-22T03:56:51;96630.41;;;-2.35;70.93
65534;BME280;53640;55.838;37.184;2023-12-22T03:59:21;96713.63;;;-1.83;71.12
65534;BME280;53640;55.838;37.184;2023-12-22T04:01:51;96667.94;;;-2.12;71.20
65534;BME280;53640;55.838;37.184;2023-12-22T04:04:19;96631.84;;;-2.26;70.97
65534;BME280;53640;55.838;37.184;2023-12-22T04:06:49;96635.13;;;-2.17;70.92
65534;BME280;53640;55.838;37.184;2023-12-22T04:09:17;96607.81;;;-2.44;71.24
65534;BME280;53640;55.838;37.184;2023-12-22T04:11:44;96614.13;;;-2.39;71.18
65534;BME280;53640;55.838;37.184;2023-12-22T04:14:10;96625.53;;;-2.25;70.18
65534;BME280;53640;55.838;37.184;2023-12-22T04:16:37;96717.06;;;-1.63;70.49
65534;BME280;53640;55.838;37.184;2023-12-22T04:19:04;96689.53;;;-1.81;70.03
65534;BME280;53640;55.838;37.184;2023-12-22T04:21:30;96719.94;;;-1.71;69.55
65534;BME280;53640;55.838;37.184;2023-12-22T04:23:59;96698.53;;;-1.76;70.00
65534;BME280;53640;55.838;37.184;2023-12-22T04:26:52;96716.88;;;-1.68;70.15
65534;BME280;53640;55.838;37.184;2023-12-22T04:29:29;96677.91;;;-1.94;70.67
65534;BME280;53640;55.838;37.184;2023-12-22T04:31:59;96686.28;;;-1.90;70.96
65534;BME280;53640;55.838;37.184;2023-12-22T04:34:36;96640.41;;;-2.11;70.72
65534;BME280;53640;55.838;37.184;2023-12-22T04:37:03;96575.00;;;-2.70;70.16
65534;BME280;53640;55.838;37.184;2023-12-22T04:39:36;96654.28;;;-1.95;71.17
65534;BME280;53640;55.838;37.184;2023-12-22T04:42:04;96605.38;;;-2.33;71.08
65534;BME280;53640;55.838;37.184;2023-12-22T04:44:31;96643.88;;;-1.97;71.25
65534;BME280;53640;55.838;37.184;2023-12-22T04:46:58;96592.94;;;-2.32;71.14
65534;BME280;53640;55.838;37.184;2023-12-22T04:49:24;96621.88;;;-2.17;69.66
65534;BME280;53640;55.838;37.184;2023-12-22T04:51:51;96619.41;;;-2.05;70.17
65534;BME280;53640;55.838;37.184;2023-12-22T04:54:18;96701.34;;;-1.77;69.75
65534;BME280;53640;55.838;37.184;2023-12-22T04:56:45;96638.16;;;-2.07;70.84
65534;BME280;53640;55.838;37.184;2023-12-22T04:59:14;96711.56;;;-1.68;71.08
65534;BME280;53640;55.838;37.184;2023-12-22T05:01:42;96708.69;;;-1.66;70.11
65534;BME280;53640;55.838;37.184;2023-12-22T05:04:11;96661.22;;;-1.94;70.68
65534;BME280;53640;55.838;37.184;2023-12-22T05:06:38;96641.22;;;-1.97;70.72
65534;BME280;53640;55.838;37.184;2023-12-22T05:09:05;96691.16;;;-1.74;70.82
65534;BME280;53640;55.838;37.184;2023-12-22T05:11:31;96677.53;;;-1.91;70.23
65534;BME280;53640;55.838;37.184;2023-12-22T05:13:57;96692.38;;;-1.70;70.33
65534;BME280;53640;55.838;37.184;2023-12-22T05:16:24;96672.00;;;-1.83;70.57
65534;BME280;53640;55.838;37.184;2023-12-22T05:18:55;96655.06;;;-1.88;69.75
65534;BME280;53640;55.838;37.184;2023-12-22T05:21:21;96626.94;;;-1.96;69.70
65534;BME280;53640;55.838;37.184;2023-12-22T05:23:49;96680.38;;;-1.79;70.56
65534;BME280;53640;55.838;37.184;2023-12-22T05:26:20;96564.81;;;-2.53;70.89
65534;BME280;53640;55.838;37.184;2023-12-22T05:28:47;96704.41;;;-1.74;71.05
65534;BME280;53640;55.838;37.184;2023-12-22T05:31:16;96584.97;;;-2.45;71.42
65534;BME280;53640;55.838;37.184;2023-12-22T05:33:46;96652.22;;;-1.87;71.13
65534;BME280;53640;55.838;37.184;2023-12-22T05:36:19;96621.66;;;-2.16;69.90
65534;BME280;53640;55.838;37.184;2023-12-22T05:38:48;96676.47;;;-1.70;69.83
65534;BME280;53640;55.838;37.184;2023-12-22T05:41:15;96645.91;;;-2.05;70.38
65534;BME280;53640;55.838;37.184;2023-12-22T05:43:41;96556.84;;;-2.60;71.07
65534;BME280;53640;55.838;37.184;2023-12-22T05:46:08;96626.94;;;-2.22;70.82
65534;BME280;53640;55.838;37.184;2023-12-22T05:48:36;96687.28;;;-1.85;71.33
65534;BME280;53640;55.838;37.184;2023-12-22T05:51:02;96650.19;;;-2.04;70.72
65534;BME280;53640;55.838;37.184;2023-12-22T05:53:39;96684.00;;;-1.73;70.97
65534;BME280;53640;55.838;37.184;2023-12-22T05:56:19;96644.06;;;-2.12;70.82
65534;BME280;53640;55.838;37.184;2023-12-22T05:58:48;96710.75;;;-1.75;70.78
65534;BME280;53640;55.838;37.184;2023-12-22T06:01:17;96672.84;;;-1.95;71.06
65534;BME280;53640;55.838;37.184;2023-12-22T06:03:46;96676.91;;;-1.86;71.03
65534;BME280;53640;55.838;37.184;2023-12-22T06:06:13;96652.84;;;-1.98;70.04
65534;BME280;53640;55.838;37.184;2023-12-22T06:08:43;96666.91;;;-1.97;70.55
65534;BME280;53640;55.838;37.184;2023-12-22T06:11:13;96685.66;;;-1.92;70.79
65534;BME280;53640;55.838;37.184;2023-12-22T06:13:40;96707.69;;;-1.72;70.25
65534;BME280;53640;55.838;37.184;2023-12-22T06:16:14;96653.47;;;-2.09;70.63
65534;BME280;53640;55.838;37.184;2023-12-22T06:18:41;96711.38;;;-1.73;71.13
65534;BME280;53640;55.838;37.184;2023-12-22T06:21:11;96675.69;;;-1.97;70.76
65534;BME280;53640;55.838;37.184;2023-12-22T06:23:40;96727.28;;;-1.79;70.89
65534;BME280;53640;55.838;37.184;2023-12-22T06:26:08;96684.03;;;-1.87;71.20
65534;BME280;53640;55.838;37.184;2023-12-22T06:28:35;96709.94;;;-1.75;71.37
65534;BME280;53640;55.838;37.184;2023-12-22T06:31:07;96714.63;;;-1.91;71.11
65534;BME280;53640;55.838;37.184;2023-12-22T06:33:35;96678.75;;;-2.06;71.10
65534;BME280;53640;55.838;37.184;2023-12-22T06:36:02;96700.38;;;-2.03;71.29
65534;BME280;53640;55.838;37.184;2023-12-22T06:38:31;96703.63;;;-1.94;69.84
65534;BME280;53640;55.838;37.184;2023-12-22T06:40:57;96733.19;;;-1.91;70.56
65534;BME280;53640;55.838;37.184;2023-12-22T06:43:25;96731.94;;;-1.88;70.95
65534;BME280;53640;55.838;37.184;2023-12-22T06:45:52;96669.75;;;-2.19;71.44
65534;BME280;53640;55.838;37.184;2023-12-22T06:48:23;96733.00;;;-1.76;70.67
65534;BME280;53640;55.838;37.184;2023-12-22T06:50:51;96730.75;;;-1.79;70.73
65534;BME280;53640;55.838;37.184;2023-12-22T06:53:19;96664.66;;;-2.20;70.27
65534;BME280;53640;55.838;37.184;2023-12-22T06:55:46;96697.50;;;-1.95;70.95
65534;BME280;53640;55.838;37.184;2023-12-22T06:58:13;96699.75;;;-1.98;71.05
65534;BME280;53640;55.838;37.184;2023-12-22T07:00:40;96680.97;;;-2.03;71.32
65534;BME280;53640;55.838;37.184;2023-12-22T07:03:16;96733.59;;;-1.74;70.98
65534;BME280;53640;55.838;37.184;2023-12-22T07:05:48;96675.88;;;-1.98;70.85
65534;BME280;53640;55.838;37.184;2023-12-22T07:08:19;96686.50;;;-1.98;70.34
65534;BME280;53640;55.838;37.184;2023-12-22T07:10:45;96720.94;;;-1.72;70.56
65534;BME280;53640;55.838;37.184;2023-12-22T07:13:13;96721.97;;;-1.73;70.93
65534;BME280;53640;55.838;37.184;2023-12-22T07:15:39;96725.03;;;-1.83;70.47
65534;BME280;53640;55.838;37.184;2023-12-22T07:18:06;96725.00;;;-1.69;70.55
65534;BME280;53640;55.838;37.184;2023-12-22T07:20:34;96683.81;;;-1.85;70.79
65534;BME280;53640;55.838;37.184;2023-12-22T07:23:01;96704.19;;;-1.66;70.75
65534;BME280;53640;55.838;37.184;2023-12-22T07:25:28;96645.69;;;-2.04;70.56
65534;BME280;53640;55.838;37.184;2023-12-22T07:27:54;96643.47;;;-2.00;69.67
65534;BME280;53640;55.838;37.184;2023-12-22T07:30:21;96679.56;;;-1.86;69.99
65534;BME280;53640;55.838;37.184;2023-12-22T07:32:47;96636.09;;;-1.92;70.81
65534;BME280;53640;55.838;37.184;2023-12-22T07:35:19;96634.28;;;-2.04;70.47
65534;BME280;53640;55.838;37.184;2023-12-22T07:37:45;96665.28;;;-1.72;70.88
65534;BME280;53640;55.838;37.184;2023-12-22T07:40:13;96637.75;;;-1.84;70.23
65534;BME280;53640;55.838;37.184;2023-12-22T07:42:40;96699.88;;;-1.40;70.50
65534;BME280;53640;55.838;37.184;2023-12-22T07:45:08;96665.44;;;-1.60;71.05
65534;BME280;53640;55.838;37.184;2023-12-22T07:47:40;96689.91;;;-1.38;70.23
65534;BME280;53640;55.838;37.184;2023-12-22T07:50:07;96621.00;;;-1.78;71.17
65534;BME280;53640;55.838;37.184;2023-12-22T07:52:37;96638.13;;;-1.67;70.98
65534;BME280;53640;55.838;37.184;2023-12-22T07:55:08;96632.00;;;-1.61;70.92
65534;BME280;53640;55.838;37.184;2023-12-22T07:57:38;96672.78;;;-1.49;71.05
65534;BME280;53640;55.838;37.184;2023-12-22T08:00:05;96673.13;;;-1.32;70.84
65534;BME280;53640;55.838;37.184;2023-12-22T08:02:38;96650.69;;;-1.29;71.24
65534;BME280;53640;55.838;37.184;2023-12-22T08:05:05;96633.97;;;-1.43;71.05
65534;BME280;53640;55.838;37.184;2023-12-22T08:07:31;96678.78;;;-1.08;71.40
65534;BME280;53640;55.838;37.184;2023-12-22T08:09:57;96629.06;;;-1.40;71.49
65534;BME280;53640;55.838;37.184;2023-12-22T08:12:24;96668.13;;;-1.02;69.26
65534;BME280;53640;55.838;37.184;2023-12-22T08:14:50;96624.94;;;-1.22;70.46
65534;BME280;53640;55.838;37.184;2023-12-22T08:17:17;96633.69;;;-1.15;70.85
65534;BME280;53640;55.838;37.184;2023-12-22T08:19:43;96665.44;;;-0.95;70.52
65534;BME280;53640;55.838;37.184;2023-12-22T08:22:10;96660.34;;;-0.90;70.21
65534;BME280;53640;55.838;37.184;2023-12-22T08:24:36;96662.38;;;-0.92;67.42
65534;BME280;53640;55.838;37.184;2023-12-22T08:27:03;96660.00;;;-1.07;69.25
65534;BME280;53640;55.838;37.184;2023-12-22T08:29:31;96669.34;;;-0.98;69.58
65534;BME280;53640;55.838;37.184;2023-12-22T08:31:58;96651.63;;;-1.11;69.88
65534;BME280;53640;55.838;37.184;2023-12-22T08:34:24;96655.25;;;-0.98;70.16
65534;BME280;53640;55.838;37.184;2023-12-22T08:36:53;96611.44;;;-1.21;70.03
65534;BME280;53640;55.838;37.184;2023-12-22T08:39:20;96543.06;;;-1.64;70.31
65534;BME280;53640;55.838;37.184;2023-12-22T08:41:47;96658.28;;;-0.88;70.11
65534;BME280;53640;55.838;37.184;2023-12-22T08:44:13;96605.41;;;-1.41;68.65
65534;BME280;53640;55.838;37.184;2023-12-22T08:46:43;96601.28;;;-1.30;68.32
65534;BME280;53640;55.838;37.184;2023-12-22T08:49:09;96627.75;;;-1.11;69.92
65534;BME280;53640;55.838;37.184;2023-12-22T08:51:35;96598.84;;;-1.32;70.22
65534;BME280;53640;55.838;37.184;2023-12-22T08:54:02;96628.78;;;-1.12;70.31
65534;BME280;53640;55.838;37.184;2023-12-22T08:56:31;96657.47;;;-0.89;69.52
65534;BME280;53640;55.838;37.184;2023-12-22T08:58:59;96631.13;;;-0.90;70.24
65534;BME280;53640;55.838;37.184;2023-12-22T09:01:25;96616.09;;;-1.10;69.08
65534;BME280;53640;55.838;37.184;2023-12-22T09:03:53;96666.00;;;-0.80;69.79
65534;BME280;53640;55.838;37.184;2023-12-22T09:06:22;96626.84;;;-0.91;69.47
65534;BME280;53640;55.838;37.184;2023-12-22T09:08:48;96614.22;;;-1.02;69.59
65534;BME280;53640;55.838;37.184;2023-12-22T09:11:17;96640.50;;;-0.88;68.74
65534;BME280;53640;55.838;37.184;2023-12-22T09:13:44;96547.72;;;-1.52;67.10
65534;BME280;53640;55.838;37.184;2023-12-22T09:16:12;96648.44;;;-0.81;66.41
65534;BME280;53640;55.838;37.184;2023-12-22T09:18:41;96603.28;;;-1.19;67.28
65534;BME280;53640;55.838;37.184;2023-12-22T09:21:11;96541.97;;;-1.49;68.24
65534;BME280;53640;55.838;37.184;2023-12-22T09:23:37;96655.59;;;-0.81;68.27
65534;BME280;53640;55.838;37.184;2023-12-22T09:26:08;96572.69;;;-1.28;68.36
65534;BME280;53640;55.838;37.184;2023-12-22T09:28:34;96524.88;;;-1.60;69.52
65534;BME280;53640;55.838;37.184;2023-12-22T09:31:03;96648.44;;;-0.81;69.21
65534;BME280;53640;55.838;37.184;2023-12-22T09:33:31;96586.31;;;-1.12;69.15
65534;BME280;53640;55.838;37.184;2023-12-22T09:35:58;96617.25;;;-0.92;69.62
65534;BME280;53640;55.838;37.184;2023-12-22T09:38:26;96638.06;;;-0.89;70.00
65534;BME280;53640;55.838;37.184;2023-12-22T09:40:54;96632.50;;;-0.81;69.50
65534;BME280;53640;55.838;37.184;2023-12-22T09:43:23;96629.84;;;-0.81;69.39
65534;BME280;53640;55.838;37.184;2023-12-22T09:45:51;96648.03;;;-0.78;69.15
65534;BME280;53640;55.838;37.184;2023-12-22T09:48:18;96636.41;;;-0.83;63.29
65534;BME280;53640;55.838;37.184;2023-12-22T09:50:54;96592.00;;;-1.08;68.07
65534;BME280;53640;55.838;37.184;2023-12-22T09:53:21;96622.97;;;-0.95;68.86
65534;BME280;53640;55.838;37.184;2023-12-22T09:55:49;96626.16;;;-0.80;68.94
65534;BME280;53640;55.838;37.184;2023-12-22T09:58:17;96625.44;;;-0.94;68.94
65534;BME280;53640;55.838;37.184;2023-12-22T10:00:44;96576.25;;;-1.03;69.11
65534;BME280;53640;55.838;37.184;2023-12-22T10:03:11;96624.28;;;-0.73;69.65
65534;BME280;53640;55.838;37.184;2023-12-22T10:05:40;96569.72;;;-1.00;69.68
65534;BME280;53640;55.838;37.184;2023-12-22T10:08:08;96530.63;;;-1.25;69.49
65534;BME280;53640;55.838;37.184;2023-12-22T10:10:40;96608.38;;;-0.79;68.29
65534;BME280;53640;55.838;37.184;2023-12-22T10:13:08;96574.63;;;-1.04;68.99
65534;BME280;53640;55.838;37.184;2023-12-22T10:15:39;96574.16;;;-0.94;68.62
65534;BME280;53640;55.838;37.184;2023-12-22T10:18:10;96584.88;;;-0.76;68.61
65534;BME280;53640;55.838;37.184;2023-12-22T10:20:38;96564.31;;;-0.87;68.89
65534;BME280;53640;55.838;37.184;2023-12-22T10:23:06;96608.69;;;-0.63;69.01
65534;BME280;53640;55.838;37.184;2023-12-22T10:25:36;96598.09;;;-0.63;69.06
65534;BME280;53640;55.838;37.184;2023-12-22T10:28:05;96587.44;;;-0.63;69.09
65534;BME280;53640;55.838;37.184;2023-12-22T10:30:36;96594.66;;;-0.70;68.14
65534;BME280;53640;55.838;37.184;2023-12-22T10:33:06;96592.84;;;-0.76;67.91
65534;BME280;53640;55.838;37.184;2023-12-22T10:38:49;96477.81;;;-1.33;69.13
65534;BME280;53640;55.838;37.184;2023-12-22T10:41:16;96522.78;;;-1.06;69.10
65534;BME280;53640;55.838;37.184;2023-12-22T10:43:44;96542.28;;;-0.94;68.56
65534;BME280;53640;55.838;37.184;2023-12-22T10:46:12;96563.63;;;-0.76;68.69
65534;BME280;53640;55.838;37.184;2023-12-22T10:48:40;96537.22;;;-0.96;69.40
65534;BME280;53640;55.838;37.184;2023-12-22T10:51:10;96570.97;;;-0.71;68.92
65534;BME280;53640;55.838;37.184;2023-12-22T10:53:40;96572.22;;;-0.74;68.99
65534;BME280;53640;55.838;37.184;2023-12-22T10:56:07;96545.16;;;-0.96;69.33
65534;BME280;53640;55.838;37.184;2023-12-22T10:58:35;96526.16;;;-0.93;69.86
65534;BME280;53640;55.838;37.184;2023-12-22T11:01:02;96489.03;;;-1.31;69.80
65534;BME280;53640;55.838;37.184;2023-12-22T11:03:31;96543.06;;;-0.87;69.75
65534;BME280;53640;55.838;37.184;2023-12-22T11:06:04;96528.22;;;-0.95;69.70
65534;BME280;53640;55.838;37.184;2023-12-22T11:08:34;96518.84;;;-0.97;69.51
65534;BME280;53640;55.838;37.184;2023-12-22T11:11:13;96537.72;;;-0.80;68.23
65534;BME280;53640;55.838;37.184;2023-12-22T11:13:44;96552.69;;;-0.61;68.88
65534;BME280;53640;55.838;37.184;2023-12-22T11:16:11;96533.97;;;-0.73;68.78
65534;BME280;53640;55.838;37.184;2023-12-22T11:18:39;96535.44;;;-0.77;67.61
65534;BME280;53640;55.838;37.184;2023-12-22T11:21:09;96532.78;;;-0.77;68.71
65534;BME280;53640;55.838;37.184;2023-12-22T11:23:38;96508.22;;;-0.97;67.36
65534;BME280;53640;55.838;37.184;2023-12-22T11:26:08;96535.28;;;-0.82;68.42
65534;BME280;53640;55.838;37.184;2023-12-22T11:28:38;96508.00;;;-0.96;67.94
65534;BME280;53640;55.838;37.184;2023-12-22T11:31:07;96516.50;;;-0.87;68.17
65534;BME280;53640;55.838;37.184;2023-12-22T11:33:36;96414.47;;;-1.54;67.58
65534;BME280;53640;55.838;37.184;2023-12-22T11:36:06;96498.47;;;-1.03;68.07
65534;BME280;53640;55.838;37.184;2023-12-22T11:38:33;96512.50;;;-0.96;68.13
65534;BME280;53640;55.838;37.184;2023-12-22T11:41:00;96529.63;;;-0.92;67.91
65534;BME280;53640;55.838;37.184;2023-12-22T11:43:27;96513.31;;;-0.96;67.05
65534;BME280;53640;55.838;37.184;2023-12-22T11:45:54;96518.13;;;-1.18;68.02
65534;BME280;53640;55.838;37.184;2023-12-22T11:48:20;96539.91;;;-1.02;68.06
65534;BME280;53640;55.838;37.184;2023-12-22T11:50:48;96506.94;;;-1.20;68.06
65534;BME280;53640;55.838;37.184;2023-12-22T11:53:22;96538.13;;;-1.15;67.76
65534;BME280;53640;55.838;37.184;2023-12-22T11:56:06;96492.53;;;-1.37;67.54
65534;BME280;53640;55.838;37.184;2023-12-22T11:58:42;96514.91;;;-1.20;67.79
65534;BME280;53640;55.838;37.184;2023-12-22T12:01:12;96511.13;;;-1.44;64.91
65534;BME280;53640;55.838;37.184;2023-12-22T12:03:52;96495.06;;;-1.55;66.35
65534;BME280;53640;55.838;37.184;2023-12-22T12:09:01;96410.72;;;-2.17;66.73
65534;BME280;53640;55.838;37.184;2023-12-22T12:14:37;96426.34;;;-1.95;67.14
65534;BME280;53640;55.838;37.184;2023-12-22T12:17:12;96526.19;;;-1.31;68.36
65534;BME280;53640;55.838;37.184;2023-12-22T12:19:44;96438.56;;;-1.94;68.37
65534;BME280;53640;55.838;37.184;2023-12-22T12:22:12;96473.34;;;-1.77;66.83
65534;BME280;53640;55.838;37.184;2023-12-22T12:24:41;96525.66;;;-1.46;67.82
65534;BME280;53640;55.838;37.184;2023-12-22T12:27:10;96420.91;;;-2.14;68.00
65534;BME280;53640;55.838;37.184;2023-12-22T12:29:54;96408.88;;;-2.16;67.70
65534;BME280;53640;55.838;37.184;2023-12-22T12:32:28;96439.59;;;-1.95;67.71
65534;BME280;53640;55.838;37.184;2023-12-22T12:34:57;96514.13;;;-1.78;67.20
65534;BME280;53640;55.838;37.184;2023-12-22T12:37:23;96503.84;;;-1.62;67.32
65534;BME280;53640;55.838;37.184;2023-12-22T12:39:53;96424.34;;;-2.13;67.43
65534;BME280;53640;55.838;37.184;2023-12-22T12:42:28;96464.44;;;-1.96;67.03
65534;BME280;53640;55.838;37.184;2023-12-22T12:44:55;96507.56;;;-1.69;67.64
65534;BME280;53640;55.838;37.184;2023-12-22T12:47:22;96511.63;;;-1.60;67.90
65534;BME280;53640;55.838;37.184;2023-12-22T12:50:00;96503.84;;;-1.62;68.07
65534;BME280;53640;55.838;37.184;2023-12-22T12:52:27;96505.69;;;-1.55;67.66
65534;BME280;53640;55.838;37.184;2023-12-22T12:54:55;96511.16;;;-1.50;67.28
65534;BME280;53640;55.838;37.184;2023-12-22T12:57:24;96451.59;;;-1.93;65.51
65534;BME280;53640;55.838;37.184;2023-12-22T12:59:51;96482.31;;;-1.72;66.08
65534;BME280;53640;55.838;37.184;2023-12-22T13:02:19;96495.31;;;-1.64;67.05
65534;BME280;53640;55.838;37.184;2023-12-22T13:04:46;96473.56;;;-1.79;67.96
65534;BME280;53640;55.838;37.184;2023-12-22T13:07:13;96438.97;;;-2.04;67.75
65534;BME280;53640;55.838;37.184;2023-12-22T13:09:40;96506.97;;;-1.71;67.76
65534;BME280;53640;55.838;37.184;2023-12-22T13:12:08;96471.75;;;-1.85;67.52